sensor_id;sensor_type;location;lat;lon;timestamp;pressure;altitude;pressure_sealevel;temperature;humidity
4123;BME280;2075;51.062;6.920;2023-12-20T00:01:40;-11667.00;;;-144.48;100.00
4123;BME280;2075;51.062;6.920;2023-12-20T00:04:25;-11667.00;;;-144.48;100.00
4123;BME280;2075;51.062;6.920;2023-12-20T00:07:11;-11667.00;;;-144.48;100.00
4123;BME280;2075;51.062;6.920;2023-12-20T00:09:56;-11667.00;;;-144.48;100.00
4123;BME280;2075;51.062;6.920;2023-12-20T00:12:42;-11667.00;;;-144.48;100.00
4123;BME280;2075;51.062;6.920;2023-12-20T00:15:28;-11667.00;;;-144.48;100.00
4123;BME280;2075;51.062;6.920;2023-12-20T00:18:14;-11667.00;;;-144.48;100.00
4123;BME280;2075;51.062;6.920;2023-12-20T00:21:00;-11667.00;;;-144.48;100.00
4123;BME280;2075;51.062;6.920;2023-12-20T00:23:45;-11667.00;;;-144.48;100.00
4123;BME280;2075;51.062;6.920;2023-12-20T00:26:31;-11667.00;;;-144.48;100.00
4123;BME280;2075;51.062;6.920;2023-12-20T00:29:16;-11667.00;;;-144.48;100.00
4123;BME280;2075;51.062;6.920;2023-12-20T00:32:03;-11667.00;;;-144.48;100.00
4123;BME280;2075;51.062;6.920;2023-12-20T00:34:49;-11667.00;;;-144.48;100.00
4123;BME280;2075;51.062;6.920;2023-12-20T00:37:34;-11667.00;;;-144.48;100.00
4123;BME280;2075;51.062;6.920;2023-12-20T00:40:20;-11667.00;;;-144.48;100.00
4123;BME280;2075;51.062;6.920;2023-12-20T00:43:06;-11667.00;;;-144.48;100.00
4123;BME280;2075;51.062;6.920;2023-12-20T00:45:51;-11667.00;;;-144.48;100.00
4123;BME280;2075;51.062;6.920;2023-12-20T00:48:38;-11667.00;;;-144.48;100.00
4123;BME280;2075;51.062;6.920;2023-12-20T00:51:26;-11667.00;;;-144.48;100.00
4123;BME280;2075;51.062;6.920;2023-12-20T00:54:11;-11667.00;;;-144.48;100.00
4123;BME280;2075;51.062;6.920;2023-12-20T00:56:57;-11667.00;;;-144.48;100.00
4123;BME280;2075;51.062;6.920;2023-12-20T00:59:43;-11667.00;;;-144.48;100.00
4123;BME280;2075;51.062;6.920;2023-12-20T01:02:29;-11667.00;;;-144.48;100.00
4123;BME280;2075;51.062;6.920;2023-12-20T01:05:16;-11667.00;;;-144.48;100.00
4123;BME280;2075;51.062;6.920;2023-12-20T01:08:04;-11667.00;;;-144.48;100.00
4123;BME280;2075;51.062;6.920;2023-12-20T01:10:49;-11667.00;;;-144.48;100.00
4123;BME280;2075;51.062;6.920;2023-12-20T01:13:35;-11667.00;;;-144.48;100.00
4123;BME280;2075;51.062;6.920;2023-12-20T01:16:20;-11667.00;;;-144.48;100.00
4123;BME280;2075;51.062;6.920;2023-12-20T01:19:07;-11667.00;;;-144.48;100.00
4123;BME280;2075;51.062;6.920;2023-12-20T01:21:54;-11667.00;;;-144.48;100.00
4123;BME280;2075;51.062;6.920;2023-12-20T01:24:39;-11667.00;;;-144.48;100.00
4123;BME280;2075;51.062;6.920;2023-12-20T01:27:24;-11667.00;;;-144.48;100.00
4123;BME280;2075;51.062;6.920;2023-12-20T01:30:10;-11667.00;;;-144.48;100.00
4123;BME280;2075;51.062;6.920;2023-12-20T01:32:56;-11667.00;;;-144.48;100.00
4123;BME280;2075;51.062;6.920;2023-12-20T01:35:41;-11667.00;;;-144.48;100.00
4123;BME280;2075;51.062;6.920;2023-12-20T01:38:28;-11667.00;;;-144.48;100.00
4123;BME280;2075;51.062;6.920;2023-12-20T01:41:13;-11667.00;;;-144.48;100.00
4123;BME280;2075;51.062;6.920;2023-12-20T01:43:59;-11667.00;;;-144.48;100.00
4123;BME280;2075;51.062;6.920;2023-12-20T01:46:45;-11667.00;;;-144.48;100.00
4123;BME280;2075;51.062;6.920;2023-12-20T01:49:30;-11667.00;;;-144.48;100.00
4123;BME280;2075;51.062;6.920;2023-12-20T01:52:16;-11667.00;;;-144.48;100.00
4123;BME280;2075;51.062;6.920;2023-12-20T01:55:04;-11667.00;;;-144.48;100.00
4123;BME280;2075;51.062;6.920;2023-12-20T01:57:58;-11667.00;;;-144.48;100.00
4123;BME280;2075;51.062;6.920;2023-12-20T02:00:44;-11667.00;;;-144.48;100.00
4123;BME280;2075;51.062;6.920;2023-12-20T02:03:29;-11667.00;;;-144.48;100.00
4123;BME280;2075;51.062;6.920;2023-12-20T02:06:16;-11667.00;;;-144.48;100.00
4123;BME280;2075;51.062;6.920;2023-12-20T02:09:02;-11667.00;;;-144.48;100.00
4123;BME280;2075;51.062;6.920;2023-12-20T02:11:49;-11667.00;;;-144.48;100.00
4123;BME280;2075;51.062;6.920;2023-12-20T02:14:34;-11667.00;;;-144.48;100.00
4123;BME280;2075;51.062;6.920;2023-12-20T02:17:20;-11667.00;;;-144.48;100.00
4123;BME280;2075;51.062;6.920;2023-12-20T02:20:06;-11667.00;;;-144.48;100.00
4123;BME280;2075;51.062;6.920;2023-12-20T02:22:53;-11667.00;;;-144.48;100.00
4123;BME280;2075;51.062;6.920;2023-12-20T02:25:38;-11667.00;;;-144.48;100.00
4123;BME280;2075;51.062;6.920;2023-12-20T02:28:25;-11667.00;;;-144.48;100.00
4123;BME280;2075;51.062;6.920;2023-12-20T02:31:11;-11667.00;;;-144.48;100.00
4123;BME280;2075;51.062;6.920;2023-12-20T02:33:56;-11667.00;;;-144.48;100.00
4123;BME280;2075;51.062;6.920;2023-12-20T02:36:42;-11667.00;;;-144.48;100.00
4123;BME280;2075;51.062;6.920;2023-12-20T02:39:29;-11667.00;;;-144.48;100.00
4123;BME280;2075;51.062;6.920;2023-12-20T02:42:15;-11667.00;;;-144.48;100.00
4123;BME280;2075;51.062;6.920;2023-12-20T02:45:00;-11667.00;;;-144.48;100.00
4123;BME280;2075;51.062;6.920;2023-12-20T02:47:46;-11667.00;;;-144.48;100.00
4123;BME280;2075;51.062;6.920;2023-12-20T02:50:31;-11667.00;;;-144.48;100.00
4123;BME280;2075;51.062;6.920;2023-12-20T02:53:17;-11667.00;;;-144.48;100.00
4123;BME280;2075;51.062;6.920;2023-12-20T02:56:04;-11667.00;;;-144.48;100.00
4123;BME280;2075;51.062;6.920;2023-12-20T02:58:50;-11667.00;;;-144.48;100.00
4123;BME280;2075;51.062;6.920;2023-12-20T03:01:41;-11667.00;;;-144.48;100.00
4123;BME280;2075;51.062;6.920;2023-12-20T03:04:27;-11667.00;;;-144.48;100.00
4123;BME280;2075;51.062;6.920;2023-12-20T03:07:12;-11667.00;;;-144.48;100.00
4123;BME280;2075;51.062;6.920;2023-12-20T03:09:58;-11667.00;;;-144.48;100.00
4123;BME280;2075;51.062;6.920;2023-12-20T03:12:44;-11667.00;;;-144.48;100.00
4123;BME280;2075;51.062;6.920;2023-12-20T03:15:30;-11667.00;;;-144.48;100.00
4123;BME280;2075;51.062;6.920;2023-12-20T03:18:15;-11667.00;;;-144.48;100.00
4123;BME280;2075;51.062;6.920;2023-12-20T03:21:00;-11667.00;;;-144.48;100.00
4123;BME280;2075;51.062;6.920;2023-12-20T03:23:46;-11667.00;;;-144.48;100.00
4123;BME280;2075;51.062;6.920;2023-12-20T03:26:31;-11667.00;;;-144.48;100.00
4123;BME280;2075;51.062;6.920;2023-12-20T03:29:18;-11667.00;;;-144.48;100.00
4123;BME280;2075;51.062;6.920;2023-12-20T03:32:04;-11667.00;;;-144.48;100.00
4123;BME280;2075;51.062;6.920;2023-12-20T03:34:49;-11665.53;;;-144.48;100.00
4123;BME280;2075;51.062;6.920;2023-12-20T03:37:35;-11665.53;;;-144.48;100.00
4123;BME280;2075;51.062;6.920;2023-12-20T03:40:26;-11665.53;;;-144.48;100.00
4123;BME280;2075;51.062;6.920;2023-12-20T03:43:12;-11667.00;;;-144.48;100.00
4123;BME280;2075;51.062;6.920;2023-12-20T03:45:58;-11667.00;;;-144.48;100.00
4123;BME280;2075;51.062;6.920;2023-12-20T03:48:44;-11413.53;;;-144.48;100.00
4123;BME280;2075;51.062;6.920;2023-12-20T03:51:30;-11667.00;;;-144.48;100.00
4123;BME280;2075;51.062;6.920;2023-12-20T03:54:15;-11667.00;;;-144.48;100.00
4123;BME280;2075;51.062;6.920;2023-12-20T03:57:01;-11667.00;;;-144.48;100.00
4123;BME280;2075;51.062;6.920;2023-12-20T03:59:46;-11667.00;;;-144.48;100.00
4123;BME280;2075;51.062;6.920;2023-12-20T04:02:35;-11667.00;;;-144.48;100.00
4123;BME280;2075;51.062;6.920;2023-12-20T04:05:20;-11667.00;;;-144.48;100.00
4123;BME280;2075;51.062;6.920;2023-12-20T04:08:07;-11667.00;;;-144.48;100.00
4123;BME280;2075;51.062;6.920;2023-12-20T04:10:52;-11667.00;;;-144.48;100.00
4123;BME280;2075;51.062;6.920;2023-12-20T04:13:38;-11667.00;;;-144.48;100.00
4123;BME280;2075;51.062;6.920;2023-12-20T04:16:23;-11667.00;;;-144.48;100.00
4123;BME280;2075;51.062;6.920;2023-12-20T04:19:11;-11667.00;;;-144.48;100.00
4123;BME280;2075;51.062;6.920;2023-12-20T04:21:56;-11665.53;;;-144.48;100.00
4123;BME280;2075;51.062;6.920;2023-12-20T04:24:41;-11161.53;;;-144.48;100.00
4123;BME280;2075;51.062;6.920;2023-12-20T04:27:27;-10909.50;;;-144.48;100.00
4123;BME280;2075;51.062;6.920;2023-12-20T04:30:13;-11161.53;;;-144.48;100.00
4123;BME280;2075;51.062;6.920;2023-12-20T04:32:58;-11413.53;;;-144.48;100.00
4123;BME280;2075;51.062;6.920;2023-12-20T04:35:45;-11161.53;;;-144.48;100.00
4123;BME280;2075;51.062;6.920;2023-12-20T04:38:31;-11161.53;;;-144.48;100.00
4123;BME280;2075;51.062;6.920;2023-12-20T04:41:16;-11161.53;;;-144.48;100.00
4123;BME280;2075;51.062;6.920;2023-12-20T04:44:03;-11665.53;;;-144.48;100.00
4123;BME280;2075;51.062;6.920;2023-12-20T04:46:49;-11665.53;;;-144.48;100.00
4123;BME280;2075;51.062;6.920;2023-12-20T04:49:34;-11161.53;;;-144.48;100.00
4123;BME280;2075;51.062;6.920;2023-12-20T04:52:21;-11665.53;;;-144.48;100.00
4123;BME280;2075;51.062;6.920;2023-12-20T04:55:08;-11667.00;;;-144.48;100.00
4123;BME280;2075;51.062;6.920;2023-12-20T04:57:54;-11667.00;;;-144.48;100.00
4123;BME280;2075;51.062;6.920;2023-12-20T05:00:43;-11665.53;;;-144.48;100.00
4123;BME280;2075;51.062;6.920;2023-12-20T05:03:34;-11413.53;;;-144.48;100.00
4123;BME280;2075;51.062;6.920;2023-12-20T05:06:28;-11161.53;;;-144.48;100.00
4123;BME280;2075;51.062;6.920;2023-12-20T05:09:15;-11413.53;;;-144.48;100.00
4123;BME280;2075;51.062;6.920;2023-12-20T05:12:01;-11413.53;;;-144.48;100.00
4123;BME280;2075;51.062;6.920;2023-12-20T05:14:50;-11161.53;;;-144.48;100.00
4123;BME280;2075;51.062;6.920;2023-12-20T05:17:37;-11161.53;;;-144.48;100.00
4123;BME280;2075;51.062;6.920;2023-12-20T05:20:24;-11665.53;;;-144.48;100.00
4123;BME280;2075;51.062;6.920;2023-12-20T05:23:11;-11413.53;;;-144.48;100.00
4123;BME280;2075;51.062;6.920;2023-12-20T05:26:00;-11161.53;;;-144.48;100.00
4123;BME280;2075;51.062;6.920;2023-12-20T05:28:47;-10909.50;;;-144.48;100.00
4123;BME280;2075;51.062;6.920;2023-12-20T05:31:32;-10909.50;;;-144.48;100.00
4123;BME280;2075;51.062;6.920;2023-12-20T05:34:19;-10657.44;;;-144.48;100.00
4123;BME280;2075;51.062;6.920;2023-12-20T05:37:05;-11161.53;;;-144.48;100.00
4123;BME280;2075;51.062;6.920;2023-12-20T05:39:52;-11665.53;;;-144.48;100.00
4123;BME280;2075;51.062;6.920;2023-12-20T05:42:42;-11667.00;;;-144.48;100.00
4123;BME280;2075;51.062;6.920;2023-12-20T05:45:29;-11667.00;;;-144.48;100.00
4123;BME280;2075;51.062;6.920;2023-12-20T05:48:15;-11667.00;;;-144.48;100.00
4123;BME280;2075;51.062;6.920;2023-12-20T05:51:00;-11667.00;;;-144.48;100.00
4123;BME280;2075;51.062;6.920;2023-12-20T05:53:45;-11667.00;;;-144.48;100.00
4123;BME280;2075;51.062;6.920;2023-12-20T05:56:31;-11413.53;;;-144.48;100.00
4123;BME280;2075;51.062;6.920;2023-12-20T05:59:18;-11161.53;;;-144.48;100.00
4123;BME280;2075;51.062;6.920;2023-12-20T06:02:08;-10657.44;;;-144.48;100.00
4123;BME280;2075;51.062;6.920;2023-12-20T06:04:53;-10405.38;;;-144.48;100.00
4123;BME280;2075;51.062;6.920;2023-12-20T06:07:38;-10405.38;;;-144.48;100.00
4123;BME280;2075;51.062;6.920;2023-12-20T06:10:24;-10657.44;;;-144.48;100.00
4123;BME280;2075;51.062;6.920;2023-12-20T06:13:18;-10657.44;;;-144.48;100.00
4123;BME280;2075;51.062;6.920;2023-12-20T06:16:06;-10405.38;;;-144.48;100.00
4123;BME280;2075;51.062;6.920;2023-12-20T06:18:52;-10405.38;;;-144.48;100.00
4123;BME280;2075;51.062;6.920;2023-12-20T06:21:38;-10405.38;;;-144.48;100.00
4123;BME280;2075;51.062;6.920;2023-12-20T06:24:26;-10405.38;;;-144.48;100.00
4123;BME280;2075;51.062;6.920;2023-12-20T06:27:12;-10657.44;;;-144.48;100.00
4123;BME280;2075;51.062;6.920;2023-12-20T06:29:58;-11161.53;;;-144.48;100.00
4123;BME280;2075;51.062;6.920;2023-12-20T06:32:44;-10909.50;;;-144.48;100.00
4123;BME280;2075;51.062;6.920;2023-12-20T06:35:31;-10909.50;;;-144.48;100.00
4123;BME280;2075;51.062;6.920;2023-12-20T06:38:18;-10909.50;;;-144.48;100.00
4123;BME280;2075;51.062;6.920;2023-12-20T06:41:04;-10405.38;;;-144.48;100.00
4123;BME280;2075;51.062;6.920;2023-12-20T06:43:50;-10153.28;;;-144.48;100.00
4123;BME280;2075;51.062;6.920;2023-12-20T06:46:35;-9396.91;;;-144.48;100.00
4123;BME280;2075;51.062;6.920;2023-12-20T06:49:22;-9396.91;;;-144.48;100.00
4123;BME280;2075;51.062;6.920;2023-12-20T06:52:08;-9396.91;;;-144.48;100.00
4123;BME280;2075;51.062;6.920;2023-12-20T06:54:53;-8640.34;;;-144.48;100.00
4123;BME280;2075;51.062;6.920;2023-12-20T06:57:38;-8388.09;;;-144.48;100.00
4123;BME280;2075;51.062;6.920;2023-12-20T07:00:24;-8135.88;;;-144.48;100.00
4123;BME280;2075;51.062;6.920;2023-12-20T07:03:10;-8135.88;;;-144.48;100.00
4123;BME280;2075;51.062;6.920;2023-12-20T07:05:57;-7126.69;;;-144.48;100.00
4123;BME280;2075;51.062;6.920;2023-12-20T07:08:42;-6621.97;;;-144.48;100.00
4123;BME280;2075;51.062;6.920;2023-12-20T07:11:28;-5612.34;;;-144.48;100.00
4123;BME280;2075;51.062;6.920;2023-12-20T07:14:13;-5107.41;;;-144.48;100.00
4123;BME280;2075;51.062;6.920;2023-12-20T07:16:59;-3339.50;;;-144.48;100.00
4123;BME280;2075;51.062;6.920;2023-12-20T07:19:44;-2834.19;;;-144.48;100.00
4123;BME280;2075;51.062;6.920;2023-12-20T07:22:33;-1570.63;;;-144.48;100.00
4123;BME280;2075;51.062;6.920;2023-12-20T07:25:19;-1317.84;;;-144.48;100.00
4123;BME280;2075;51.062;6.920;2023-12-20T07:28:05;-812.25;;;-144.48;100.00
4123;BME280;2075;51.062;6.920;2023-12-20T07:30:51;-306.56;;;-144.48;100.00
4123;BME280;2075;51.062;6.920;2023-12-20T07:33:36;199.19;;;-144.48;100.00
4123;BME280;2075;51.062;6.920;2023-12-20T07:36:23;705.03;;;-144.48;100.00
4123;BME280;2075;51.062;6.920;2023-12-20T07:39:09;199.19;;;-144.48;100.00
4123;BME280;2075;51.062;6.920;2023-12-20T07:41:57;452.09;;;-144.48;100.00
4123;BME280;2075;51.062;6.920;2023-12-20T07:44:43;199.19;;;-144.48;100.00
4123;BME280;2075;51.062;6.920;2023-12-20T07:47:28;-306.56;;;-144.48;100.00
4123;BME280;2075;51.062;6.920;2023-12-20T07:50:14;-559.44;;;-144.48;100.00
4123;BME280;2075;51.062;6.920;2023-12-20T07:53:00;-53.69;;;-144.48;100.00
4123;BME280;2075;51.062;6.920;2023-12-20T07:55:50;452.09;;;-144.48;100.00
4123;BME280;2075;51.062;6.920;2023-12-20T07:58:36;705.03;;;-144.48;100.00
4123;BME280;2075;51.062;6.920;2023-12-20T08:01:23;1969.97;;;-144.48;100.00
4123;BME280;2075;51.062;6.920;2023-12-20T08:04:08;2476.06;;;-144.48;100.00
4123;BME280;2075;51.062;6.920;2023-12-20T08:06:54;3488.53;;;-144.48;100.00
4123;BME280;2075;51.062;6.920;2023-12-20T08:09:39;3994.88;;;-144.48;100.00
4123;BME280;2075;51.062;6.920;2023-12-20T08:12:27;3994.88;;;-144.48;100.00
4123;BME280;2075;51.062;6.920;2023-12-20T08:15:13;3741.69;;;-144.48;100.00
4123;BME280;2075;51.062;6.920;2023-12-20T08:17:58;4754.53;;;-144.48;100.00
4123;BME280;2075;51.062;6.920;2023-12-20T08:20:47;4754.53;;;-144.48;100.00
4123;BME280;2075;51.062;6.920;2023-12-20T08:23:33;5007.78;;;-144.48;100.00
4123;BME280;2075;51.062;6.920;2023-12-20T08:26:19;5514.38;;;-144.48;100.00
4123;BME280;2075;51.062;6.920;2023-12-20T08:29:07;6781.16;;;-144.48;100.00
4123;BME280;2075;51.062;6.920;2023-12-20T08:31:53;6781.16;;;-144.48;100.00
4123;BME280;2075;51.062;6.920;2023-12-20T08:34:38;8301.94;;;-144.48;100.00
4123;BME280;2075;51.062;6.920;2023-12-20T08:37:24;8809.03;;;-144.48;100.00
4123;BME280;2075;51.062;6.920;2023-12-20T08:40:10;10330.75;;;-144.48;100.00
4123;BME280;2075;51.062;6.920;2023-12-20T08:42:56;11599.41;;;-144.48;100.00
4123;BME280;2075;51.062;6.920;2023-12-20T08:45:43;11345.63;;;-144.48;100.00
4123;BME280;2075;51.062;6.920;2023-12-20T08:48:28;12614.66;;;-144.48;100.00
4123;BME280;2075;51.062;6.920;2023-12-20T08:51:14;12868.53;;;-144.48;100.00
4123;BME280;2075;51.062;6.920;2023-12-20T08:54:00;12868.53;;;-144.48;100.00
4123;BME280;2075;51.062;6.920;2023-12-20T08:56:46;11599.41;;;-144.48;100.00
4123;BME280;2075;51.062;6.920;2023-12-20T08:59:31;13122.41;;;-144.48;100.00
4123;BME280;2075;51.062;6.920;2023-12-20T09:02:18;13376.31;;;-144.48;100.00
4123;BME280;2075;51.062;6.920;2023-12-20T09:05:04;13884.19;;;-144.48;100.00
4123;BME280;2075;51.062;6.920;2023-12-20T09:07:50;15916.41;;;-144.48;100.00
4123;BME280;2075;51.062;6.920;2023-12-20T09:10:38;15662.31;;;-144.48;100.00
4123;BME280;2075;51.062;6.920;2023-12-20T09:13:23;19475.84;;;-144.48;100.00
4123;BME280;2075;51.062;6.920;2023-12-20T09:16:12;19730.22;;;-144.48;100.00
4123;BME280;2075;51.062;6.920;2023-12-20T09:19:01;24567.38;;;-144.48;100.00
4123;BME280;2075;51.062;6.920;2023-12-20T09:21:46;25586.63;;;-144.48;100.00
4123;BME280;2075;51.062;6.920;2023-12-20T09:24:33;25586.63;;;-144.48;100.00
4123;BME280;2075;51.062;6.920;2023-12-20T09:27:19;29411.56;;;-144.48;100.00
4123;BME280;2075;51.062;6.920;2023-12-20T09:30:06;27626.03;;;-144.48;100.00
4123;BME280;2075;51.062;6.920;2023-12-20T09:32:52;26606.16;;;-144.48;100.00
4123;BME280;2075;51.062;6.920;2023-12-20T09:35:39;28136.09;;;-144.48;100.00
4123;BME280;2075;51.062;6.920;2023-12-20T09:38:25;27626.03;;;-144.48;100.00
4123;BME280;2075;51.062;6.920;2023-12-20T09:41:11;29921.88;;;-144.48;100.00
4123;BME280;2075;51.062;6.920;2023-12-20T09:43:57;31198.03;;;-144.48;100.00
4123;BME280;2075;51.062;6.920;2023-12-20T09:46:45;29156.41;;;-144.48;100.00
4123;BME280;2075;51.062;6.920;2023-12-20T09:49:33;26861.09;;;-144.48;100.00
4123;BME280;2075;51.062;6.920;2023-12-20T09:52:22;26096.34;;;-144.48;100.00
4123;BME280;2075;51.062;6.920;2023-12-20T09:55:09;24312.59;;;-144.48;100.00
4123;BME280;2075;51.062;6.920;2023-12-20T09:57:55;23293.75;;;-144.48;100.00
4123;BME280;2075;51.062;6.920;2023-12-20T10:00:40;21257.00;;;-144.48;100.00
4123;BME280;2075;51.062;6.920;2023-12-20T10:03:28;21002.47;;;-144.48;100.00
4123;BME280;2075;51.062;6.920;2023-12-20T10:06:16;21766.06;;;-144.48;100.00
4123;BME280;2075;51.062;6.920;2023-12-20T10:09:04;23548.44;;;-144.48;100.00
4123;BME280;2075;51.062;6.920;2023-12-20T10:11:49;25841.47;;;-144.48;100.00
4123;BME280;2075;51.062;6.920;2023-12-20T10:14:39;29921.88;;;-144.48;100.00
4123;BME280;2075;51.062;6.920;2023-12-20T10:17:27;30942.75;;;-144.48;100.00
4123;BME280;2075;51.062;6.920;2023-12-20T10:20:13;32985.44;;;-144.48;100.00
4123;BME280;2075;51.062;6.920;2023-12-20T10:23:01;33496.31;;;-144.48;100.00
4123;BME280;2075;51.062;6.920;2023-12-20T10:25:57;34007.25;;;-144.48;100.00
4123;BME280;2075;51.062;6.920;2023-12-20T10:28:43;33240.88;;;-144.48;100.00
4123;BME280;2075;51.062;6.920;2023-12-20T10:31:30;35284.97;;;-144.48;100.00
4123;BME280;2075;51.062;6.920;2023-12-20T10:34:18;34518.28;;;-144.48;100.00
4123;BME280;2075;51.062;6.920;2023-12-20T10:37:03;32985.44;;;-144.48;100.00
4123;BME280;2075;51.062;6.920;2023-12-20T10:39:51;33496.31;;;-144.48;100.00
4123;BME280;2075;51.062;6.920;2023-12-20T10:42:41;36051.84;;;-144.48;100.00
4123;BME280;2075;51.062;6.920;2023-12-20T10:45:27;38353.47;;;-144.48;100.00
4123;BME280;2075;51.062;6.920;2023-12-20T10:48:15;39376.91;;;-144.48;100.00
4123;BME280;2075;51.062;6.920;2023-12-20T10:51:02;37841.84;;;-144.48;100.00
4123;BME280;2075;51.062;6.920;2023-12-20T10:53:51;40144.72;;;-144.48;100.00
4123;BME280;2075;51.062;6.920;2023-12-20T10:56:38;38097.66;;;-144.48;100.00
4123;BME280;2075;51.062;6.920;2023-12-20T10:59:27;37841.84;;;-144.48;100.00
4123;BME280;2075;51.062;6.920;2023-12-20T11:02:15;39888.75;;;-144.48;100.00
4123;BME280;2075;51.062;6.920;2023-12-20T11:05:09;39888.75;;;-144.48;100.00
4123;BME280;2075;51.062;6.920;2023-12-20T11:08:01;40400.69;;;-144.48;100.00
4123;BME280;2075;51.062;6.920;2023-12-20T11:10:54;40656.66;;;-144.48;100.00
4123;BME280;2075;51.062;6.920;2023-12-20T11:13:48;41168.72;;;-144.48;100.00
4123;BME280;2075;51.062;6.920;2023-12-20T11:16:40;46293.41;;;-144.48;100.00
4123;BME280;2075;51.062;6.920;2023-12-20T11:19:26;52710.22;;;-144.48;100.00
4123;BME280;2075;51.062;6.920;2023-12-20T11:22:12;56051.78;;;-144.48;100.00
4123;BME280;2075;51.062;6.920;2023-12-20T11:25:04;58624.47;;;-144.48;100.00
4123;BME280;2075;51.062;6.920;2023-12-20T11:28:16;59911.53;;;-144.48;100.00
4123;BME280;2075;51.062;6.920;2023-12-20T11:31:06;61199.09;;;-144.48;100.00
4123;BME280;2075;51.062;6.920;2023-12-20T11:34:12;59654.09;;;-144.48;100.00
4123;BME280;2075;51.062;6.920;2023-12-20T11:36:59;52710.22;;;-144.48;100.00
4123;BME280;2075;51.062;6.920;2023-12-20T11:39:54;50912.28;;;-144.48;100.00
4123;BME280;2075;51.062;6.920;2023-12-20T11:42:40;43473.84;;;-144.48;100.00
4123;BME280;2075;51.062;6.920;2023-12-20T11:45:27;43217.66;;;-144.48;100.00
4123;BME280;2075;51.062;6.920;2023-12-20T11:48:14;41936.91;;;-144.48;100.00
4123;BME280;2075;51.062;6.920;2023-12-20T11:51:02;46036.97;;;-144.48;100.00
4123;BME280;2075;51.062;6.920;2023-12-20T11:53:51;41936.91;;;-144.48;100.00
4123;BME280;2075;51.062;6.920;2023-12-20T11:56:37;40144.72;;;-144.48;100.00
4123;BME280;2075;51.062;6.920;2023-12-20T11:59:23;31708.63;;;-144.48;100.00
4123;BME280;2075;51.062;6.920;2023-12-20T12:02:13;26861.09;;;-144.48;100.00
4123;BME280;2075;51.062;6.920;2023-12-20T12:05:00;24567.38;;;-144.48;100.00
4123;BME280;2075;51.062;6.920;2023-12-20T12:07:49;25331.78;;;-144.48;100.00
4123;BME280;2075;51.062;6.920;2023-12-20T12:10:35;27371.03;;;-144.48;100.00
4123;BME280;2075;51.062;6.920;2023-12-20T12:13:23;30687.50;;;-144.48;100.00
4123;BME280;2075;51.062;6.920;2023-12-20T12:16:11;29921.88;;;-144.48;100.00
4123;BME280;2075;51.062;6.920;2023-12-20T12:18:58;30687.50;;;-144.48;100.00
4123;BME280;2075;51.062;6.920;2023-12-20T12:21:49;28391.13;;;-144.48;100.00
4123;BME280;2075;51.062;6.920;2023-12-20T12:24:37;27881.03;;;-144.48;100.00
4123;BME280;2075;51.062;6.920;2023-12-20T12:27:23;27116.06;;;-144.48;100.00
4123;BME280;2075;51.062;6.920;2023-12-20T12:30:10;28646.22;;;-144.48;100.00
4123;BME280;2075;51.062;6.920;2023-12-20T12:32:57;29156.41;;;-144.48;100.00
4123;BME280;2075;51.062;6.920;2023-12-20T12:35:43;28391.13;;;-144.48;100.00
4123;BME280;2075;51.062;6.920;2023-12-20T12:38:30;23803.16;;;-144.48;100.00
4123;BME280;2075;51.062;6.920;2023-12-20T12:41:20;20748.00;;;-144.48;100.00
4123;BME280;2075;51.062;6.920;2023-12-20T12:44:06;17187.19;;;-144.48;100.00
4123;BME280;2075;51.062;6.920;2023-12-20T12:46:53;18204.19;;;-144.48;100.00
4123;BME280;2075;51.062;6.920;2023-12-20T12:49:40;16933.00;;;-144.48;100.00
4123;BME280;2075;51.062;6.920;2023-12-20T12:52:27;18712.78;;;-144.48;100.00
4123;BME280;2075;51.062;6.920;2023-12-20T12:55:13;21257.00;;;-144.48;100.00
4123;BME280;2075;51.062;6.920;2023-12-20T12:58:01;19221.47;;;-144.48;100.00
4123;BME280;2075;51.062;6.920;2023-12-20T13:00:47;18458.47;;;-144.48;100.00
4123;BME280;2075;51.062;6.920;2023-12-20T13:03:35;18204.19;;;-144.48;100.00
4123;BME280;2075;51.062;6.920;2023-12-20T13:06:21;25841.47;;;-144.48;100.00
4123;BME280;2075;51.062;6.920;2023-12-20T13:09:07;30942.75;;;-144.48;100.00
4123;BME280;2075;51.062;6.920;2023-12-20T13:11:54;34262.75;;;-144.48;100.00
4123;BME280;2075;51.062;6.920;2023-12-20T13:14:43;39632.81;;;-144.48;100.00
4123;BME280;2075;51.062;6.920;2023-12-20T13:17:29;50398.75;;;-144.48;100.00
4123;BME280;2075;51.062;6.920;2023-12-20T13:20:16;58367.09;;;-144.48;100.00
4123;BME280;2075;51.062;6.920;2023-12-20T13:23:04;48345.44;;;-144.48;100.00
4123;BME280;2075;51.062;6.920;2023-12-20T13:25:52;48088.88;;;-144.48;100.00
4123;BME280;2075;51.062;6.920;2023-12-20T13:28:38;50398.75;;;-144.48;100.00
4123;BME280;2075;51.062;6.920;2023-12-20T13:31:26;47575.78;;;-144.48;100.00
4123;BME280;2075;51.062;6.920;2023-12-20T13:34:12;33751.78;;;-144.48;100.00
4123;BME280;2075;51.062;6.920;2023-12-20T13:36:58;29921.88;;;-144.48;100.00
4123;BME280;2075;51.062;6.920;2023-12-20T13:39:45;27371.03;;;-144.48;100.00
4123;BME280;2075;51.062;6.920;2023-12-20T13:42:32;26096.34;;;-144.48;100.00
4123;BME280;2075;51.062;6.920;2023-12-20T13:45:17;25076.94;;;-144.48;100.00
4123;BME280;2075;51.062;6.920;2023-12-20T13:48:06;24312.59;;;-144.48;100.00
4123;BME280;2075;51.062;6.920;2023-12-20T13:50:52;23039.09;;;-144.48;100.00
4123;BME280;2075;51.062;6.920;2023-12-20T13:53:38;22020.63;;;-144.48;100.00
4123;BME280;2075;51.062;6.920;2023-12-20T13:56:25;19984.66;;;-144.48;100.00
4123;BME280;2075;51.062;6.920;2023-12-20T13:59:11;19984.66;;;-144.48;100.00
4123;BME280;2075;51.062;6.920;2023-12-20T14:01:57;18458.47;;;-144.48;100.00
4123;BME280;2075;51.062;6.920;2023-12-20T14:04:44;16424.66;;;-144.48;100.00
4123;BME280;2075;51.062;6.920;2023-12-20T14:07:31;17441.41;;;-144.48;100.00
4123;BME280;2075;51.062;6.920;2023-12-20T14:10:17;16678.81;;;-144.48;100.00
4123;BME280;2075;51.062;6.920;2023-12-20T14:13:03;15408.25;;;-144.48;100.00
4123;BME280;2075;51.062;6.920;2023-12-20T14:15:49;16424.66;;;-144.48;100.00
4123;BME280;2075;51.062;6.920;2023-12-20T14:18:35;14900.13;;;-144.48;100.00
4123;BME280;2075;51.062;6.920;2023-12-20T14:21:24;13376.31;;;-144.48;100.00
4123;BME280;2075;51.062;6.920;2023-12-20T14:24:11;9823.44;;;-144.48;100.00
4123;BME280;2075;51.062;6.920;2023-12-20T14:26:59;10584.44;;;-144.48;100.00